sensor_id;sensor_type;location;lat;lon;timestamp;P1;durP1;ratioP1;P2;durP2;ratioP2
10725;SDS011;5414;59.782;16.378;2024-02-14T00:00:18;4.77;;;3.37;;
10725;SDS011;5414;59.782;16.378;2024-02-14T00:02:45;3.83;;;3.33;;
10725;SDS011;5414;59.782;16.378;2024-02-14T00:05:15;7.10;;;3.90;;
10725;SDS011;5414;59.782;16.378;2024-02-14T00:07:41;6.00;;;3.90;;
10725;SDS011;5414;59.782;16.378;2024-02-14T00:10:07;5.03;;;3.67;;
10725;SDS011;5414;59.782;16.378;2024-02-14T00:12:33;5.13;;;3.97;;
10725;SDS011;5414;59.782;16.378;2024-02-14T00:15:00;4.60;;;3.20;;
10725;SDS011;5414;59.782;16.378;2024-02-14T00:17:28;5.10;;;3.33;;
10725;SDS011;5414;59.782;16.378;2024-02-14T00:19:54;3.90;;;3.27;;
10725;SDS011;5414;59.782;16.378;2024-02-14T00:22:20;4.87;;;3.53;;
10725;SDS011;5414;59.782;16.378;2024-02-14T00:24:47;4.83;;;3.33;;
10725;SDS011;5414;59.782;16.378;2024-02-14T00:27:13;4.50;;;3.43;;
10725;SDS011;5414;59.782;16.378;2024-02-14T00:29:42;5.17;;;3.50;;
10725;SDS011;5414;59.782;16.378;2024-02-14T00:32:10;4.90;;;3.60;;
10725;SDS011;5414;59.782;16.378;2024-02-14T00:34:36;5.27;;;3.30;;
10725;SDS011;5414;59.782;16.378;2024-02-14T00:37:02;5.03;;;3.77;;
10725;SDS011;5414;59.782;16.378;2024-02-14T00:39:30;4.67;;;3.57;;
10725;SDS011;5414;59.782;16.378;2024-02-14T00:41:56;5.17;;;3.43;;
10725;SDS011;5414;59.782;16.378;2024-02-14T00:44:22;4.97;;;3.70;;
10725;SDS011;5414;59.782;16.378;2024-02-14T00:46:48;4.37;;;3.40;;
10725;SDS011;5414;59.782;16.378;2024-02-14T00:49:14;4.87;;;3.47;;
10725;SDS011;5414;59.782;16.378;2024-02-14T00:51:40;4.97;;;3.80;;
10725;SDS011;5414;59.782;16.378;2024-02-14T00:54:06;4.73;;;3.27;;
10725;SDS011;5414;59.782;16.378;2024-02-14T00:56:34;4.37;;;3.17;;
10725;SDS011;5414;59.782;16.378;2024-02-14T00:59:01;4.80;;;3.47;;
10725;SDS011;5414;59.782;16.378;2024-02-14T01:01:27;5.60;;;3.50;;
10725;SDS011;5414;59.782;16.378;2024-02-14T01:03:53;5.73;;;3.73;;
10725;SDS011;5414;59.782;16.378;2024-02-14T01:06:19;4.47;;;3.07;;
10725;SDS011;5414;59.782;16.378;2024-02-14T01:08:45;3.87;;;3.10;;
10725;SDS011;5414;59.782;16.378;2024-02-14T01:11:12;7.20;;;3.43;;
10725;SDS011;5414;59.782;16.378;2024-02-14T01:13:39;4.13;;;3.33;;
10725;SDS011;5414;59.782;16.378;2024-02-14T01:16:06;4.90;;;3.43;;
10725;SDS011;5414;59.782;16.378;2024-02-14T01:18:32;4.60;;;3.40;;
10725;SDS011;5414;59.782;16.378;2024-02-14T01:20:58;4.07;;;3.07;;
10725;SDS011;5414;59.782;16.378;2024-02-14T01:23:25;4.27;;;3.27;;
10725;SDS011;5414;59.782;16.378;2024-02-14T01:25:51;5.37;;;3.67;;
10725;SDS011;5414;59.782;16.378;2024-02-14T01:28:19;4.73;;;3.70;;
10725;SDS011;5414;59.782;16.378;2024-02-14T01:30:46;3.53;;;3.17;;
10725;SDS011;5414;59.782;16.378;2024-02-14T01:33:12;4.27;;;3.40;;
10725;SDS011;5414;59.782;16.378;2024-02-14T01:35:39;4.40;;;3.53;;
10725;SDS011;5414;59.782;16.378;2024-02-14T01:38:06;5.00;;;3.80;;
10725;SDS011;5414;59.782;16.378;2024-02-14T01:40:32;4.70;;;3.43;;
10725;SDS011;5414;59.782;16.378;2024-02-14T01:42:58;4.80;;;3.30;;
10725;SDS011;5414;59.782;16.378;2024-02-14T01:45:27;4.77;;;3.80;;
10725;SDS011;5414;59.782;16.378;2024-02-14T01:47:53;4.47;;;3.63;;
10725;SDS011;5414;59.782;16.378;2024-02-14T01:50:21;5.20;;;3.50;;
10725;SDS011;5414;59.782;16.378;2024-02-14T01:52:56;4.63;;;3.57;;
10725;SDS011;5414;59.782;16.378;2024-02-14T01:55:24;4.67;;;3.43;;
10725;SDS011;5414;59.782;16.378;2024-02-14T01:57:53;5.00;;;3.87;;
10725;SDS011;5414;59.782;16.378;2024-02-14T02:00:19;5.03;;;3.67;;
10725;SDS011;5414;59.782;16.378;2024-02-14T02:02:46;4.77;;;3.47;;
10725;SDS011;5414;59.782;16.378;2024-02-14T02:05:13;4.80;;;3.40;;
10725;SDS011;5414;59.782;16.378;2024-02-14T02:07:39;4.87;;;3.40;;
10725;SDS011;5414;59.782;16.378;2024-02-14T02:10:08;4.90;;;3.47;;
10725;SDS011;5414;59.782;16.378;2024-02-14T02:12:35;6.03;;;3.67;;
10725;SDS011;5414;59.782;16.378;2024-02-14T02:15:04;3.93;;;3.23;;
10725;SDS011;5414;59.782;16.378;2024-02-14T02:17:30;4.50;;;3.53;;
10725;SDS011;5414;59.782;16.378;2024-02-14T02:19:59;5.27;;;3.50;;
10725;SDS011;5414;59.782;16.378;2024-02-14T02:22:26;4.40;;;3.37;;
10725;SDS011;5414;59.782;16.378;2024-02-14T02:24:54;4.13;;;3.33;;
10725;SDS011;5414;59.782;16.378;2024-02-14T02:27:20;4.40;;;3.07;;
10725;SDS011;5414;59.782;16.378;2024-02-14T02:29:46;4.13;;;3.40;;
10725;SDS011;5414;59.782;16.378;2024-02-14T02:32:12;4.60;;;3.67;;
10725;SDS011;5414;59.782;16.378;2024-02-14T02:34:38;4.73;;;3.60;;
10725;SDS011;5414;59.782;16.378;2024-02-14T02:37:06;4.90;;;3.30;;
10725;SDS011;5414;59.782;16.378;2024-02-14T02:39:34;5.67;;;3.50;;
10725;SDS011;5414;59.782;16.378;2024-02-14T02:42:01;4.30;;;3.00;;
10725;SDS011;5414;59.782;16.378;2024-02-14T02:44:28;4.20;;;3.17;;
10725;SDS011;5414;59.782;16.378;2024-02-14T02:46:54;5.07;;;3.43;;
10725;SDS011;5414;59.782;16.378;2024-02-14T02:49:20;5.17;;;3.63;;
10725;SDS011;5414;59.782;16.378;2024-02-14T02:51:46;4.30;;;3.20;;
10725;SDS011;5414;59.782;16.378;2024-02-14T02:54:14;4.23;;;3.20;;
10725;SDS011;5414;59.782;16.378;2024-02-14T02:56:40;4.40;;;3.20;;
10725;SDS011;5414;59.782;16.378;2024-02-14T02:59:07;4.83;;;3.33;;
10725;SDS011;5414;59.782;16.378;2024-02-14T03:01:36;3.73;;;3.00;;
10725;SDS011;5414;59.782;16.378;2024-02-14T03:04:02;3.73;;;2.83;;
10725;SDS011;5414;59.782;16.378;2024-02-14T03:06:28;5.23;;;3.70;;
10725;SDS011;5414;59.782;16.378;2024-02-14T03:08:54;4.67;;;3.43;;
10725;SDS011;5414;59.782;16.378;2024-02-14T03:11:22;4.50;;;3.30;;
10725;SDS011;5414;59.782;16.378;2024-02-14T03:13:49;5.40;;;3.30;;
10725;SDS011;5414;59.782;16.378;2024-02-14T03:16:15;5.07;;;3.23;;
10725;SDS011;5414;59.782;16.378;2024-02-14T03:18:42;4.70;;;3.10;;
10725;SDS011;5414;59.782;16.378;2024-02-14T03:21:08;4.47;;;3.17;;
10725;SDS011;5414;59.782;16.378;2024-02-14T03:23:34;4.37;;;3.23;;
10725;SDS011;5414;59.782;16.378;2024-02-14T03:26:00;4.43;;;3.33;;
10725;SDS011;5414;59.782;16.378;2024-02-14T03:28:27;3.23;;;2.90;;
10725;SDS011;5414;59.782;16.378;2024-02-14T03:30:53;4.97;;;3.40;;
10725;SDS011;5414;59.782;16.378;2024-02-14T03:33:19;4.20;;;3.03;;
10725;SDS011;5414;59.782;16.378;2024-02-14T03:35:46;4.93;;;2.93;;
10725;SDS011;5414;59.782;16.378;2024-02-14T03:38:13;5.97;;;3.40;;
10725;SDS011;5414;59.782;16.378;2024-02-14T03:40:39;4.53;;;3.20;;
10725;SDS011;5414;59.782;16.378;2024-02-14T03:43:07;5.53;;;3.07;;
10725;SDS011;5414;59.782;16.378;2024-02-14T03:45:36;4.47;;;3.53;;
10725;SDS011;5414;59.782;16.378;2024-02-14T03:48:02;3.80;;;3.17;;
10725;SDS011;5414;59.782;16.378;2024-02-14T03:50:29;5.40;;;3.47;;
10725;SDS011;5414;59.782;16.378;2024-02-14T03:52:55;3.70;;;3.27;;
10725;SDS011;5414;59.782;16.378;2024-02-14T03:55:21;5.23;;;3.50;;
10725;SDS011;5414;59.782;16.378;2024-02-14T03:57:48;4.07;;;3.50;;
10725;SDS011;5414;59.782;16.378;2024-02-14T04:00:17;4.50;;;3.60;;
10725;SDS011;5414;59.782;16.378;2024-02-14T04:02:43;5.10;;;3.33;;
10725;SDS011;5414;59.782;16.378;2024-02-14T04:05:09;4.87;;;3.60;;
10725;SDS011;5414;59.782;16.378;2024-02-14T04:07:35;5.70;;;4.00;;
10725;SDS011;5414;59.782;16.378;2024-02-14T04:10:02;5.13;;;3.77;;
10725;SDS011;5414;59.782;16.378;2024-02-14T04:12:28;6.63;;;4.37;;
10725;SDS011;5414;59.782;16.378;2024-02-14T04:14:54;8.93;;;5.30;;
10725;SDS011;5414;59.782;16.378;2024-02-14T04:17:20;9.53;;;6.37;;
10725;SDS011;5414;59.782;16.378;2024-02-14T04:19:48;10.33;;;6.03;;
10725;SDS011;5414;59.782;16.378;2024-02-14T04:22:14;9.70;;;5.50;;
10725;SDS011;5414;59.782;16.378;2024-02-14T04:24:39;9.20;;;5.40;;
10725;SDS011;5414;59.782;16.378;2024-02-14T04:27:05;9.17;;;4.97;;
10725;SDS011;5414;59.782;16.378;2024-02-14T04:29:32;12.73;;;6.67;;
10725;SDS011;5414;59.782;16.378;2024-02-14T04:32:01;11.97;;;6.67;;
10725;SDS011;5414;59.782;16.378;2024-02-14T04:34:27;12.90;;;7.13;;
10725;SDS011;5414;59.782;16.378;2024-02-14T04:36:54;13.13;;;7.17;;
10725;SDS011;5414;59.782;16.378;2024-02-14T04:39:21;12.30;;;7.23;;
10725;SDS011;5414;59.782;16.378;2024-02-14T04:41:47;10.37;;;6.33;;
10725;SDS011;5414;59.782;16.378;2024-02-14T04:44:15;10.10;;;5.07;;
10725;SDS011;5414;59.782;16.378;2024-02-14T04:46:42;6.80;;;5.00;;
10725;SDS011;5414;59.782;16.378;2024-02-14T04:49:09;12.43;;;6.30;;
10725;SDS011;5414;59.782;16.378;2024-02-14T04:51:35;9.93;;;5.77;;
10725;SDS011;5414;59.782;16.378;2024-02-14T04:54:01;10.90;;;6.23;;
10725;SDS011;5414;59.782;16.378;2024-02-14T04:56:28;20.97;;;7.70;;
10725;SDS011;5414;59.782;16.378;2024-02-14T04:58:54;12.13;;;6.30;;
10725;SDS011;5414;59.782;16.378;2024-02-14T05:01:20;13.90;;;7.37;;
10725;SDS011;5414;59.782;16.378;2024-02-14T05:03:48;17.00;;;8.00;;
10725;SDS011;5414;59.782;16.378;2024-02-14T05:06:14;17.00;;;7.53;;
10725;SDS011;5414;59.782;16.378;2024-02-14T05:08:41;15.33;;;7.30;;
10725;SDS011;5414;59.782;16.378;2024-02-14T05:11:07;15.77;;;8.00;;
10725;SDS011;5414;59.782;16.378;2024-02-14T05:13:33;11.13;;;6.77;;
10725;SDS011;5414;59.782;16.378;2024-02-14T05:16:02;16.13;;;7.57;;
10725;SDS011;5414;59.782;16.378;2024-02-14T05:18:28;14.47;;;7.70;;
10725;SDS011;5414;59.782;16.378;2024-02-14T05:20:54;12.33;;;7.30;;
10725;SDS011;5414;59.782;16.378;2024-02-14T05:23:20;13.20;;;7.27;;
10725;SDS011;5414;59.782;16.378;2024-02-14T05:25:46;12.13;;;6.77;;
10725;SDS011;5414;59.782;16.378;2024-02-14T05:28:13;16.70;;;8.03;;
10725;SDS011;5414;59.782;16.378;2024-02-14T05:30:40;11.70;;;7.03;;
10725;SDS011;5414;59.782;16.378;2024-02-14T05:33:06;11.30;;;7.03;;
10725;SDS011;5414;59.782;16.378;2024-02-14T05:35:32;12.23;;;6.60;;
10725;SDS011;5414;59.782;16.378;2024-02-14T05:37:58;15.70;;;7.47;;
10725;SDS011;5414;59.782;16.378;2024-02-14T05:40:24;10.50;;;7.07;;
10725;SDS011;5414;59.782;16.378;2024-02-14T05:42:50;11.03;;;6.30;;
10725;SDS011;5414;59.782;16.378;2024-02-14T05:45:17;10.70;;;6.73;;
10725;SDS011;5414;59.782;16.378;2024-02-14T05:47:43;10.60;;;6.67;;
10725;SDS011;5414;59.782;16.378;2024-02-14T05:50:09;11.70;;;7.00;;
10725;SDS011;5414;59.782;16.378;2024-02-14T05:52:36;11.73;;;6.87;;
10725;SDS011;5414;59.782;16.378;2024-02-14T05:55:03;11.50;;;7.13;;
10725;SDS011;5414;59.782;16.378;2024-02-14T05:57:30;9.50;;;5.90;;
10725;SDS011;5414;59.782;16.378;2024-02-14T05:59:56;9.83;;;6.53;;
10725;SDS011;5414;59.782;16.378;2024-02-14T06:02:23;9.33;;;6.43;;
10725;SDS011;5414;59.782;16.378;2024-02-14T06:04:49;11.17;;;6.57;;
10725;SDS011;5414;59.782;16.378;2024-02-14T06:07:15;8.60;;;6.00;;
10725;SDS011;5414;59.782;16.378;2024-02-14T06:09:41;10.17;;;6.73;;
10725;SDS011;5414;59.782;16.378;2024-02-14T06:12:07;9.80;;;6.70;;
10725;SDS011;5414;59.782;16.378;2024-02-14T06:14:33;9.50;;;5.93;;
10725;SDS011;5414;59.782;16.378;2024-02-14T06:17:00;8.50;;;5.37;;
10725;SDS011;5414;59.782;16.378;2024-02-14T06:19:26;8.87;;;5.93;;
10725;SDS011;5414;59.782;16.378;2024-02-14T06:21:54;10.50;;;6.17;;
10725;SDS011;5414;59.782;16.378;2024-02-14T06:24:20;7.37;;;5.53;;
10725;SDS011;5414;59.782;16.378;2024-02-14T06:26:46;9.23;;;6.30;;
10725;SDS011;5414;59.782;16.378;2024-02-14T06:29:12;9.93;;;6.13;;
10725;SDS011;5414;59.782;16.378;2024-02-14T06:31:38;8.37;;;5.67;;
10725;SDS011;5414;59.782;16.378;2024-02-14T06:34:04;8.60;;;6.10;;
10725;SDS011;5414;59.782;16.378;2024-02-14T06:36:32;8.07;;;5.57;;
10725;SDS011;5414;59.782;16.378;2024-02-14T06:38:58;8.77;;;6.13;;
10725;SDS011;5414;59.782;16.378;2024-02-14T06:41:24;9.73;;;6.27;;
10725;SDS011;5414;59.782;16.378;2024-02-14T06:43:50;9.80;;;6.07;;
10725;SDS011;5414;59.782;16.378;2024-02-14T06:46:16;9.57;;;6.33;;
10725;SDS011;5414;59.782;16.378;2024-02-14T06:48:42;10.57;;;6.80;;
10725;SDS011;5414;59.782;16.378;2024-02-14T06:51:08;11.33;;;6.00;;
10725;SDS011;5414;59.782;16.378;2024-02-14T06:53:34;10.60;;;6.40;;
10725;SDS011;5414;59.782;16.378;2024-02-14T06:56:00;10.00;;;6.53;;
10725;SDS011;5414;59.782;16.378;2024-02-14T06:58:27;9.30;;;6.30;;
10725;SDS011;5414;59.782;16.378;2024-02-14T07:00:53;9.90;;;5.93;;
10725;SDS011;5414;59.782;16.378;2024-02-14T07:03:19;11.10;;;6.37;;
10725;SDS011;5414;59.782;16.378;2024-02-14T07:05:45;9.17;;;6.47;;
10725;SDS011;5414;59.782;16.378;2024-02-14T07:08:11;9.93;;;6.20;;
10725;SDS011;5414;59.782;16.378;2024-02-14T07:10:37;9.30;;;6.17;;
10725;SDS011;5414;59.782;16.378;2024-02-14T07:13:03;9.87;;;6.60;;
10725;SDS011;5414;59.782;16.378;2024-02-14T07:15:29;9.73;;;6.27;;
10725;SDS011;5414;59.782;16.378;2024-02-14T07:17:55;9.07;;;6.40;;
10725;SDS011;5414;59.782;16.378;2024-02-14T07:20:22;10.07;;;5.97;;
10725;SDS011;5414;59.782;16.378;2024-02-14T07:22:52;10.77;;;6.97;;
10725;SDS011;5414;59.782;16.378;2024-02-14T07:25:19;9.97;;;6.13;;
10725;SDS011;5414;59.782;16.378;2024-02-14T07:27:45;11.60;;;6.80;;
10725;SDS011;5414;59.782;16.378;2024-02-14T07:30:13;9.67;;;6.10;;
10725;SDS011;5414;59.782;16.378;2024-02-14T07:32:39;10.57;;;6.43;;
10725;SDS011;5414;59.782;16.378;2024-02-14T07:35:05;9.77;;;6.57;;
10725;SDS011;5414;59.782;16.378;2024-02-14T07:37:32;8.20;;;5.60;;
10725;SDS011;5414;59.782;16.378;2024-02-14T07:39:58;9.80;;;6.57;;
10725;SDS011;5414;59.782;16.378;2024-02-14T07:42:24;9.90;;;6.13;;
10725;SDS011;5414;59.782;16.378;2024-02-14T07:44:50;8.63;;;6.23;;
10725;SDS011;5414;59.782;16.378;2024-02-14T07:47:16;10.07;;;6.10;;
10725;SDS011;5414;59.782;16.378;2024-02-14T07:49:42;9.97;;;6.77;;
10725;SDS011;5414;59.782;16.378;2024-02-14T07:52:10;9.50;;;6.13;;
10725;SDS011;5414;59.782;16.378;2024-02-14T07:54:36;9.00;;;5.63;;
10725;SDS011;5414;59.782;16.378;2024-02-14T07:57:02;9.40;;;6.63;;
10725;SDS011;5414;59.782;16.378;2024-02-14T07:59:28;9.00;;;6.20;;
10725;SDS011;5414;59.782;16.378;2024-02-14T08:01:54;11.63;;;6.40;;
10725;SDS011;5414;59.782;16.378;2024-02-14T08:04:22;11.00;;;6.40;;
10725;SDS011;5414;59.782;16.378;2024-02-14T08:06:49;9.20;;;6.07;;
10725;SDS011;5414;59.782;16.378;2024-02-14T08:09:15;9.23;;;5.63;;
10725;SDS011;5414;59.782;16.378;2024-02-14T08:11:41;7.80;;;5.10;;
10725;SDS011;5414;59.782;16.378;2024-02-14T08:14:07;8.73;;;5.70;;
10725;SDS011;5414;59.782;16.378;2024-02-14T08:16:33;9.43;;;6.17;;
10725;SDS011;5414;59.782;16.378;2024-02-14T08:19:00;9.53;;;5.57;;
10725;SDS011;5414;59.782;16.378;2024-02-14T08:21:26;9.83;;;5.93;;
10725;SDS011;5414;59.782;16.378;2024-02-14T08:23:52;7.90;;;5.77;;
10725;SDS011;5414;59.782;16.378;2024-02-14T08:26:19;8.17;;;5.87;;
10725;SDS011;5414;59.782;16.378;2024-02-14T08:28:46;8.90;;;5.83;;
10725;SDS011;5414;59.782;16.378;2024-02-14T08:31:12;8.57;;;5.70;;
10725;SDS011;5414;59.782;16.378;2024-02-14T08:33:38;9.60;;;6.07;;
10725;SDS011;5414;59.782;16.378;2024-02-14T08:36:06;9.37;;;5.37;;
10725;SDS011;5414;59.782;16.378;2024-02-14T08:38:32;9.70;;;6.00;;
10725;SDS011;5414;59.782;16.378;2024-02-14T08:40:59;9.80;;;5.87;;
10725;SDS011;5414;59.782;16.378;2024-02-14T08:43:25;9.07;;;6.13;;
10725;SDS011;5414;59.782;16.378;2024-02-14T08:45:53;9.47;;;5.87;;
10725;SDS011;5414;59.782;16.378;2024-02-14T08:48:19;9.33;;;6.40;;
10725;SDS011;5414;59.782;16.378;2024-02-14T08:50:45;9.17;;;5.90;;
10725;SDS011;5414;59.782;16.378;2024-02-14T08:53:11;13.13;;;6.70;;
10725;SDS011;5414;59.782;16.378;2024-02-14T08:55:39;10.30;;;6.67;;
10725;SDS011;5414;59.782;16.378;2024-02-14T08:58:05;12.93;;;7.13;;
10725;SDS011;5414;59.782;16.378;2024-02-14T09:00:31;13.30;;;8.60;;
10725;SDS011;5414;59.782;16.378;2024-02-14T09:03:00;14.70;;;8.67;;
10725;SDS011;5414;59.782;16.378;2024-02-14T09:05:26;10.80;;;7.43;;
10725;SDS011;5414;59.782;16.378;2024-02-14T09:07:53;14.73;;;7.83;;
10725;SDS011;5414;59.782;16.378;2024-02-14T09:10:20;14.90;;;8.23;;
10725;SDS011;5414;59.782;16.378;2024-02-14T09:12:47;15.10;;;7.70;;
10725;SDS011;5414;59.782;16.378;2024-02-14T09:15:13;11.63;;;7.43;;
10725;SDS011;5414;59.782;16.378;2024-02-14T09:17:39;15.93;;;8.60;;
10725;SDS011;5414;59.782;16.378;2024-02-14T09:20:06;15.33;;;9.33;;
10725;SDS011;5414;59.782;16.378;2024-02-14T09:22:37;16.37;;;8.93;;
10725;SDS011;5414;59.782;16.378;2024-02-14T09:25:03;13.90;;;9.03;;
10725;SDS011;5414;59.782;16.378;2024-02-14T09:27:30;16.13;;;9.27;;
10725;SDS011;5414;59.782;16.378;2024-02-14T09:29:59;14.10;;;8.20;;
10725;SDS011;5414;59.782;16.378;2024-02-14T09:32:25;13.63;;;8.17;;
10725;SDS011;5414;59.782;16.378;2024-02-14T09:34:51;13.17;;;8.27;;
10725;SDS011;5414;59.782;16.378;2024-02-14T09:37:17;14.43;;;8.70;;
10725;SDS011;5414;59.782;16.378;2024-02-14T09:39:45;14.77;;;8.53;;
10725;SDS011;5414;59.782;16.378;2024-02-14T09:42:12;15.80;;;9.10;;
10725;SDS011;5414;59.782;16.378;2024-02-14T09:44:39;15.73;;;9.20;;
10725;SDS011;5414;59.782;16.378;2024-02-14T09:47:06;15.60;;;9.83;;
10725;SDS011;5414;59.782;16.378;2024-02-14T09:49:33;16.27;;;9.23;;
10725;SDS011;5414;59.782;16.378;2024-02-14T09:52:01;17.27;;;9.50;;
10725;SDS011;5414;59.782;16.378;2024-02-14T09:54:28;16.90;;;9.73;;
10725;SDS011;5414;59.782;16.378;2024-02-14T09:56:55;17.47;;;10.00;;
10725;SDS011;5414;59.782;16.378;2024-02-14T09:59:24;20.77;;;10.50;;
10725;SDS011;5414;59.782;16.378;2024-02-14T10:01:51;17.60;;;10.20;;
10725;SDS011;5414;59.782;16.378;2024-02-14T10:04:17;17.27;;;10.50;;
10725;SDS011;5414;59.782;16.378;2024-02-14T10:06:44;16.37;;;10.13;;
10725;SDS011;5414;59.782;16.378;2024-02-14T10:09:10;20.10;;;11.07;;
10725;SDS011;5414;59.782;16.378;2024-02-14T10:11:37;18.13;;;10.27;;
10725;SDS011;5414;59.782;16.378;2024-02-14T10:14:06;17.67;;;10.73;;
10725;SDS011;5414;59.782;16.378;2024-02-14T10:16:35;22.33;;;11.40;;
10725;SDS011;5414;59.782;16.378;2024-02-14T10:19:01;21.00;;;10.80;;
10725;SDS011;5414;59.782;16.378;2024-02-14T10:21:29;23.10;;;11.90;;
10725;SDS011;5414;59.782;16.378;2024-02-14T10:24:01;21.50;;;11.87;;
10725;SDS011;5414;59.782;16.378;2024-02-14T10:26:30;22.70;;;11.97;;
10725;SDS011;5414;59.782;16.378;2024-02-14T10:28:57;21.63;;;12.07;;
10725;SDS011;5414;59.782;16.378;2024-02-14T10:31:26;24.40;;;12.13;;
10725;SDS011;5414;59.782;16.378;2024-02-14T10:33:56;24.50;;;12.20;;
10725;SDS011;5414;59.782;16.378;2024-02-14T10:36:22;23.33;;;12.90;;
10725;SDS011;5414;59.782;16.378;2024-02-14T10:38:48;23.23;;;12.57;;
10725;SDS011;5414;59.782;16.378;2024-02-14T10:41:16;24.23;;;12.43;;
10725;SDS011;5414;59.782;16.378;2024-02-14T10:43:42;23.53;;;12.60;;
10725;SDS011;5414;59.782;16.378;2024-02-14T10:46:20;22.20;;;13.57;;
10725;SDS011;5414;59.782;16.378;2024-02-14T10:48:46;24.07;;;13.27;;
10725;SDS011;5414;59.782;16.378;2024-02-14T10:51:14;26.13;;;14.40;;
10725;SDS011;5414;59.782;16.378;2024-02-14T10:53:41;28.17;;;13.63;;
10725;SDS011;5414;59.782;16.378;2024-02-14T10:56:10;23.53;;;12.73;;
10725;SDS011;5414;59.782;16.378;2024-02-14T10:58:36;25.17;;;13.47;;
10725;SDS011;5414;59.782;16.378;2024-02-14T11:01:02;27.00;;;14.20;;
10725;SDS011;5414;59.782;16.378;2024-02-14T11:03:28;30.40;;;14.93;;
10725;SDS011;5414;59.782;16.378;2024-02-14T11:05:55;27.00;;;13.13;;
10725;SDS011;5414;59.782;16.378;2024-02-14T11:08:28;27.40;;;13.80;;
10725;SDS011;5414;59.782;16.378;2024-02-14T11:10:58;26.03;;;13.20;;
10725;SDS011;5414;59.782;16.378;2024-02-14T11:13:28;25.83;;;12.87;;
10725;SDS011;5414;59.782;16.378;2024-02-14T11:16:04;25.57;;;13.40;;
10725;SDS011;5414;59.782;16.378;2024-02-14T11:18:32;24.63;;;12.77;;
10725;SDS011;5414;59.782;16.378;2024-02-14T11:20:58;28.03;;;13.53;;
10725;SDS011;5414;59.782;16.378;2024-02-14T11:23:24;24.37;;;13.03;;
10725;SDS011;5414;59.782;16.378;2024-02-14T11:25:58;24.43;;;13.57;;
10725;SDS011;5414;59.782;16.378;2024-02-14T11:28:25;28.03;;;13.23;;
10725;SDS011;5414;59.782;16.378;2024-02-14T11:30:51;27.87;;;13.93;;
10725;SDS011;5414;59.782;16.378;2024-02-14T11:33:18;28.00;;;14.80;;
10725;SDS011;5414;59.782;16.378;2024-02-14T11:35:45;26.33;;;13.63;;
10725;SDS011;5414;59.782;16.378;2024-02-14T11:38:11;25.53;;;13.40;;
10725;SDS011;5414;59.782;16.378;2024-02-14T11:40:38;30.60;;;14.60;;
10725;SDS011;5414;59.782;16.378;2024-02-14T11:43:04;22.17;;;12.20;;
10725;SDS011;5414;59.782;16.378;2024-02-14T11:45:30;24.63;;;13.50;;
10725;SDS011;5414;59.782;16.378;2024-02-14T11:47:56;22.87;;;12.40;;
10725;SDS011;5414;59.782;16.378;2024-02-14T11:50:22;23.90;;;12.80;;
10725;SDS011;5414;59.782;16.378;2024-02-14T11:52:48;25.90;;;13.03;;
10725;SDS011;5414;59.782;16.378;2024-02-14T11:55:17;28.57;;;13.47;;
10725;SDS011;5414;59.782;16.378;2024-02-14T11:57:43;23.40;;;12.73;;
10725;SDS011;5414;59.782;16.378;2024-02-14T12:00:11;31.93;;;13.40;;
10725;SDS011;5414;59.782;16.378;2024-02-14T12:02:37;27.07;;;13.87;;
10725;SDS011;5414;59.782;16.378;2024-02-14T12:05:03;29.40;;;13.30;;
10725;SDS011;5414;59.782;16.378;2024-02-14T12:07:30;29.00;;;13.47;;
10725;SDS011;5414;59.782;16.378;2024-02-14T12:09:56;28.73;;;14.10;;
10725;SDS011;5414;59.782;16.378;2024-02-14T12:12:22;29.63;;;13.60;;
10725;SDS011;5414;59.782;16.378;2024-02-14T12:14:53;32.67;;;13.33;;
10725;SDS011;5414;59.782;16.378;2024-02-14T12:17:19;29.40;;;14.50;;
10725;SDS011;5414;59.782;16.378;2024-02-14T12:19:46;32.57;;;13.10;;
10725;SDS011;5414;59.782;16.378;2024-02-14T12:22:13;30.23;;;14.03;;
10725;SDS011;5414;59.782;16.378;2024-02-14T12:24:45;32.40;;;14.03;;
10725;SDS011;5414;59.782;16.378;2024-02-14T12:27:17;30.73;;;13.53;;
10725;SDS011;5414;59.782;16.378;2024-02-14T12:29:47;29.33;;;13.57;;
10725;SDS011;5414;59.782;16.378;2024-02-14T12:32:15;28.40;;;14.43;;
10725;SDS011;5414;59.782;16.378;2024-02-14T12:34:43;33.23;;;14.23;;
10725;SDS011;5414;59.782;16.378;2024-02-14T12:37:10;30.97;;;13.40;;
10725;SDS011;5414;59.782;16.378;2024-02-14T12:39:36;29.33;;;14.33;;
10725;SDS011;5414;59.782;16.378;2024-02-14T12:42:03;28.33;;;13.90;;
10725;SDS011;5414;59.782;16.378;2024-02-14T12:44:31;34.67;;;14.53;;
10725;SDS011;5414;59.782;16.378;2024-02-14T12:46:57;32.70;;;15.27;;
10725;SDS011;5414;59.782;16.378;2024-02-14T12:49:23;38.03;;;16.13;;
10725;SDS011;5414;59.782;16.378;2024-02-14T12:51:52;38.67;;;16.57;;
10725;SDS011;5414;59.782;16.378;2024-02-14T12:54:18;41.50;;;16.23;;
10725;SDS011;5414;59.782;16.378;2024-02-14T12:56:44;41.77;;;15.80;;
10725;SDS011;5414;59.782;16.378;2024-02-14T12:59:14;40.60;;;16.97;;
10725;SDS011;5414;59.782;16.378;2024-02-14T13:01:43;47.20;;;16.93;;
10725;SDS011;5414;59.782;16.378;2024-02-14T13:04:09;46.27;;;18.07;;
10725;SDS011;5414;59.782;16.378;2024-02-14T13:06:35;45.40;;;18.20;;
10725;SDS011;5414;59.782;16.378;2024-02-14T13:09:03;40.70;;;16.77;;
10725;SDS011;5414;59.782;16.378;2024-02-14T13:11:33;42.90;;;17.80;;
10725;SDS011;5414;59.782;16.378;2024-02-14T13:13:59;55.20;;;17.53;;
10725;SDS011;5414;59.782;16.378;2024-02-14T13:16:25;46.63;;;16.73;;
10725;SDS011;5414;59.782;16.378;2024-02-14T13:18:51;50.27;;;17.07;;
10725;SDS011;5414;59.782;16.378;2024-02-14T13:21:18;45.67;;;17.70;;
10725;SDS011;5414;59.782;16.378;2024-02-14T13:23:44;50.03;;;17.50;;
10725;SDS011;5414;59.782;16.378;2024-02-14T13:26:10;47.77;;;17.43;;
10725;SDS011;5414;59.782;16.378;2024-02-14T13:28:36;44.73;;;17.23;;
10725;SDS011;5414;59.782;16.378;2024-02-14T13:31:02;48.73;;;18.63;;
10725;SDS011;5414;59.782;16.378;2024-02-14T13:33:28;57.17;;;16.60;;
10725;SDS011;5414;59.782;16.378;2024-02-14T13:35:54;44.10;;;17.20;;
10725;SDS011;5414;59.782;16.378;2024-02-14T13:38:20;55.33;;;17.07;;
10725;SDS011;5414;59.782;16.378;2024-02-14T13:40:46;65.00;;;18.47;;
10725;SDS011;5414;59.782;16.378;2024-02-14T13:43:13;50.03;;;18.10;;
10725;SDS011;5414;59.782;16.378;2024-02-14T13:45:42;41.83;;;15.47;;
10725;SDS011;5414;59.782;16.378;2024-02-14T13:48:08;42.60;;;15.77;;
10725;SDS011;5414;59.782;16.378;2024-02-14T13:50:35;46.37;;;16.03;;
10725;SDS011;5414;59.782;16.378;2024-02-14T13:53:02;37.27;;;14.77;;
10725;SDS011;5414;59.782;16.378;2024-02-14T13:55:28;38.57;;;14.47;;
10725;SDS011;5414;59.782;16.378;2024-02-14T13:57:54;44.17;;;15.90;;
10725;SDS011;5414;59.782;16.378;2024-02-14T14:00:20;44.13;;;16.50;;
10725;SDS011;5414;59.782;16.378;2024-02-14T14:02:46;55.93;;;16.10;;
10725;SDS011;5414;59.782;16.378;2024-02-14T14:05:12;41.27;;;16.00;;
10725;SDS011;5414;59.782;16.378;2024-02-14T14:07:40;55.97;;;16.70;;
10725;SDS011;5414;59.782;16.378;2024-02-14T14:10:06;55.07;;;16.77;;
10725;SDS011;5414;59.782;16.378;2024-02-14T14:12:33;61.43;;;16.80;;
10725;SDS011;5414;59.782;16.378;2024-02-14T14:14:59;54.27;;;17.00;;
10725;SDS011;5414;59.782;16.378;2024-02-14T14:17:25;49.90;;;17.03;;
10725;SDS011;5414;59.782;16.378;2024-02-14T14:19:51;56.47;;;17.33;;
10725;SDS011;5414;59.782;16.378;2024-02-14T14:22:17;47.53;;;16.97;;
10725;SDS011;5414;59.782;16.378;2024-02-14T14:24:43;49.33;;;16.90;;
10725;SDS011;5414;59.782;16.378;2024-02-14T14:27:09;45.97;;;16.23;;
10725;SDS011;5414;59.782;16.378;2024-02-14T14:29:39;52.83;;;17.43;;
10725;SDS011;5414;59.782;16.378;2024-02-14T14:32:07;47.33;;;16.03;;